createdAt,value
2023-10-06T00:00:41.666Z,16.41
2023-10-06T00:01:45.901Z,16.39
2023-10-06T00:02:49.391Z,16.37
2023-10-06T00:03:58.709Z,16.34
2023-10-06T00:05:02.361Z,16.31
2023-10-06T00:06:05.586Z,16.29
2023-10-06T00:07:09.328Z,16.27
2023-10-06T00:08:12.423Z,16.24
2023-10-06T00:09:23.301Z,16.21
2023-10-06T00:10:28.490Z,16.19
2023-10-06T00:11:32.891Z,16.16
2023-10-06T00:12:36.330Z,16.13
2023-10-06T00:13:39.154Z,16.12
2023-10-06T00:14:44.352Z,16.09
2023-10-06T00:15:50.529Z,16.07
2023-10-06T00:16:58.456Z,16.05
2023-10-06T00:18:02.131Z,16.01
2023-10-06T00:19:21.000Z,15.99
2023-10-06T00:20:32.062Z,15.96
2023-10-06T00:21:35.461Z,15.94
2023-10-06T00:22:39.175Z,15.92
2023-10-06T00:23:44.484Z,15.90
2023-10-06T00:24:48.908Z,15.87
2023-10-06T00:25:54.146Z,15.85
2023-10-06T00:26:56.705Z,15.84
2023-10-06T00:28:01.870Z,15.83
2023-10-06T00:29:11.266Z,15.81
2023-10-06T00:30:14.390Z,15.81
2023-10-06T00:31:17.578Z,15.81
2023-10-06T00:32:24.214Z,15.80
2023-10-06T00:33:29.155Z,15.80
2023-10-06T00:34:31.992Z,15.80
2023-10-06T00:35:36.727Z,15.80
2023-10-06T00:36:42.947Z,15.80
2023-10-06T00:37:46.094Z,15.79
2023-10-06T00:38:51.746Z,15.79
2023-10-06T00:39:56.002Z,15.79
2023-10-06T00:40:58.288Z,15.79
2023-10-06T00:42:05.663Z,15.79
2023-10-06T00:43:09.706Z,15.79
2023-10-06T00:44:12.960Z,15.77
2023-10-06T00:45:15.121Z,15.76
2023-10-06T00:46:20.323Z,15.75
2023-10-06T00:47:24.140Z,15.74
2023-10-06T00:48:27.811Z,15.72
2023-10-06T00:49:30.865Z,15.71
2023-10-06T00:50:37.551Z,15.70
2023-10-06T00:51:42.676Z,15.68
2023-10-06T00:52:45.915Z,15.66
2023-10-06T00:53:48.299Z,15.64
2023-10-06T00:54:51.406Z,15.62
2023-10-06T00:55:55.670Z,15.61
2023-10-06T00:56:59.397Z,15.60
2023-10-06T00:58:05.204Z,15.60
2023-10-06T00:59:07.578Z,15.58
2023-10-06T01:00:20.838Z,15.59
2023-10-06T01:01:23.887Z,15.59
2023-10-06T01:02:28.668Z,15.58
2023-10-06T01:03:31.104Z,15.58
2023-10-06T01:04:36.348Z,15.58
2023-10-06T01:05:39.878Z,15.58
2023-10-06T01:06:44.029Z,15.56
2023-10-06T01:07:46.883Z,15.53
2023-10-06T01:08:53.843Z,15.52
2023-10-06T01:09:57.900Z,15.50
2023-10-06T01:11:12.805Z,15.48
2023-10-06T01:12:19.027Z,15.49
2023-10-06T01:13:23.812Z,15.49
2023-10-06T01:14:27.339Z,15.50
2023-10-06T01:15:31.217Z,15.49
2023-10-06T01:16:36.346Z,15.48
2023-10-06T01:17:41.497Z,15.46
2023-10-06T01:18:44.051Z,15.43
2023-10-06T01:19:50.748Z,15.41
2023-10-06T01:20:53.018Z,15.38
2023-10-06T01:21:56.443Z,15.35
2023-10-06T01:23:01.221Z,15.32
2023-10-06T01:24:13.073Z,15.28
2023-10-06T01:25:22.232Z,15.24
2023-10-06T01:26:25.382Z,15.22
2023-10-06T01:27:28.729Z,15.19
2023-10-06T01:28:36.054Z,15.16
2023-10-06T01:29:41.862Z,15.13
2023-10-06T01:30:43.987Z,15.11
2023-10-06T01:31:47.546Z,15.09
2023-10-06T01:32:52.040Z,15.08
2023-10-06T01:33:57.130Z,15.06
2023-10-06T01:34:59.316Z,15.03
2023-10-06T01:36:02.726Z,15.01
2023-10-06T01:37:05.687Z,14.98
2023-10-06T01:38:16.336Z,14.97
2023-10-06T01:39:18.740Z,14.96
2023-10-06T01:40:42.225Z,14.97
2023-10-06T01:41:47.690Z,14.98
2023-10-06T01:42:50.897Z,14.99
2023-10-06T01:43:53.070Z,15.00
2023-10-06T01:45:04.306Z,15.01
2023-10-06T01:46:08.646Z,15.03
2023-10-06T01:47:13.094Z,15.04
2023-10-06T01:48:24.270Z,15.06
2023-10-06T01:49:27.963Z,15.08
2023-10-06T01:50:30.649Z,15.10
2023-10-06T01:51:36.843Z,15.10
2023-10-06T01:52:40.941Z,15.10
2023-10-06T01:53:45.592Z,15.08
2023-10-06T01:54:47.736Z,15.07
2023-10-06T01:55:50.508Z,15.05
2023-10-06T01:56:55.224Z,15.03
2023-10-06T01:57:58.279Z,14.99
2023-10-06T01:59:02.788Z,14.97
2023-10-06T02:00:15.610Z,14.93
2023-10-06T02:01:20.081Z,14.87
2023-10-06T02:02:25.298Z,14.83
2023-10-06T02:03:27.791Z,14.79
2023-10-06T02:04:40.461Z,14.76
2023-10-06T02:05:42.666Z,14.73
2023-10-06T02:06:46.967Z,14.71
2023-10-06T02:07:49.275Z,14.68
2023-10-06T02:08:55.498Z,14.66
2023-10-06T02:09:57.729Z,14.65
2023-10-06T02:11:02.960Z,14.63
2023-10-06T02:12:06.431Z,14.62
2023-10-06T02:13:09.707Z,14.61
2023-10-06T02:14:12.425Z,14.60
2023-10-06T02:15:15.900Z,14.60
2023-10-06T02:16:23.749Z,14.59
2023-10-06T02:17:27.005Z,14.58
2023-10-06T02:18:37.019Z,14.57
2023-10-06T02:19:43.657Z,14.57
2023-10-06T02:20:47.437Z,14.57
2023-10-06T02:21:51.235Z,14.57
2023-10-06T02:22:54.152Z,14.56
2023-10-06T02:24:04.858Z,14.56
2023-10-06T02:25:14.828Z,14.56
2023-10-06T02:26:18.061Z,14.56
2023-10-06T02:27:20.969Z,14.57
2023-10-06T02:28:24.164Z,14.57
2023-10-06T02:29:28.076Z,14.58
2023-10-06T02:30:38.845Z,14.59
2023-10-06T02:31:42.674Z,14.61
2023-10-06T02:32:46.661Z,14.62
2023-10-06T02:33:50.465Z,14.63
2023-10-06T02:34:53.892Z,14.65
2023-10-06T02:35:57.242Z,14.68
2023-10-06T02:37:01.483Z,14.69
2023-10-06T02:38:07.251Z,14.71
2023-10-06T02:39:17.023Z,14.73
2023-10-06T02:40:30.714Z,14.74
2023-10-06T02:41:34.157Z,14.76
2023-10-06T02:42:41.833Z,14.75
2023-10-06T02:43:44.168Z,14.75
2023-10-06T02:44:47.923Z,14.76
2023-10-06T02:45:51.938Z,14.75
2023-10-06T02:46:55.193Z,14.74
2023-10-06T02:47:59.321Z,14.73
2023-10-06T02:49:08.167Z,14.72
2023-10-06T02:50:13.741Z,14.70
2023-10-06T02:51:22.715Z,14.68
2023-10-06T02:52:31.392Z,14.66
2023-10-06T02:53:36.439Z,14.63
2023-10-06T02:54:46.103Z,14.61
2023-10-06T02:55:50.512Z,14.59
2023-10-06T02:56:56.520Z,14.57
2023-10-06T02:57:59.340Z,14.54
2023-10-06T02:59:16.552Z,14.52
2023-10-06T03:00:31.593Z,14.51
2023-10-06T03:01:39.496Z,14.50
2023-10-06T03:02:42.031Z,14.48
2023-10-06T03:03:45.232Z,14.46
2023-10-06T03:04:55.940Z,14.45
2023-10-06T03:05:59.179Z,14.43
2023-10-06T03:07:02.746Z,14.43
2023-10-06T03:08:10.435Z,14.42
2023-10-06T03:09:14.782Z,14.40
2023-10-06T03:10:19.549Z,14.40
2023-10-06T03:11:24.895Z,14.38
2023-10-06T03:12:28.012Z,14.38
2023-10-06T03:13:36.726Z,14.38
2023-10-06T03:14:39.342Z,14.38
2023-10-06T03:15:47.011Z,14.39
2023-10-06T03:16:52.645Z,14.40
2023-10-06T03:17:56.277Z,14.42
2023-10-06T03:18:58.592Z,14.44
2023-10-06T03:20:11.417Z,14.45
2023-10-06T03:21:15.806Z,14.47
2023-10-06T03:22:19.250Z,14.48
2023-10-06T03:23:28.348Z,14.49
2023-10-06T03:24:32.791Z,14.50
2023-10-06T03:25:40.641Z,14.50
2023-10-06T03:26:46.514Z,14.52
2023-10-06T03:27:53.816Z,14.54
2023-10-06T03:29:03.056Z,14.55
2023-10-06T03:30:18.904Z,14.57
2023-10-06T03:31:31.723Z,14.58
2023-10-06T03:32:40.150Z,14.59
2023-10-06T03:33:42.390Z,14.60
2023-10-06T03:34:45.140Z,14.61
2023-10-06T03:35:48.986Z,14.62
2023-10-06T03:36:53.377Z,14.63
2023-10-06T03:38:09.284Z,14.64
2023-10-06T03:39:13.078Z,14.65
2023-10-06T03:40:23.805Z,14.66
2023-10-06T03:41:32.372Z,14.67
2023-10-06T03:42:38.395Z,14.68
2023-10-06T03:43:49.228Z,14.68
2023-10-06T03:45:06.200Z,14.69
2023-10-06T03:46:10.584Z,14.71
2023-10-06T03:47:12.850Z,14.71
2023-10-06T03:48:16.059Z,14.72
2023-10-06T03:49:19.659Z,14.72
2023-10-06T03:50:22.814Z,14.72
2023-10-06T03:51:26.538Z,14.72
2023-10-06T03:52:29.643Z,14.72
2023-10-06T03:53:31.996Z,14.72
2023-10-06T03:54:35.402Z,14.72
2023-10-06T03:55:40.871Z,14.72
2023-10-06T03:56:48.019Z,14.73
2023-10-06T03:57:51.021Z,14.73
2023-10-06T03:58:55.258Z,14.72
2023-10-06T03:59:59.358Z,14.71
2023-10-06T04:01:09.222Z,14.69
2023-10-06T04:02:11.459Z,14.66
2023-10-06T04:03:15.629Z,14.64
2023-10-06T04:04:23.489Z,14.63
2023-10-06T04:05:26.016Z,14.63
2023-10-06T04:06:29.780Z,14.62
2023-10-06T04:07:31.899Z,14.60
2023-10-06T04:08:35.007Z,14.56
2023-10-06T04:09:38.269Z,14.55
2023-10-06T04:10:43.799Z,14.53
2023-10-06T04:11:48.288Z,14.52
2023-10-06T04:12:51.524Z,14.52
2023-10-06T04:13:54.436Z,14.51
2023-10-06T04:14:58.205Z,14.50
2023-10-06T04:16:00.428Z,14.49
2023-10-06T04:17:05.255Z,14.48
2023-10-06T04:18:11.152Z,14.47
2023-10-06T04:19:16.592Z,14.47
2023-10-06T04:20:18.779Z,14.46
2023-10-06T04:21:25.468Z,14.45
2023-10-06T04:22:27.843Z,14.45
2023-10-06T04:23:31.109Z,14.45
2023-10-06T04:24:33.339Z,14.45
2023-10-06T04:25:38.829Z,14.44
2023-10-06T04:26:41.159Z,14.45
2023-10-06T04:27:46.026Z,14.45
2023-10-06T04:28:49.354Z,14.42
2023-10-06T04:29:54.008Z,14.41
2023-10-06T04:30:59.351Z,14.42
2023-10-06T04:32:02.942Z,14.44
2023-10-06T04:33:05.875Z,14.43
2023-10-06T04:34:10.762Z,14.43
2023-10-06T04:35:20.751Z,14.43
2023-10-06T04:36:25.351Z,14.43
2023-10-06T04:37:28.269Z,14.43
2023-10-06T04:38:31.924Z,14.43
2023-10-06T04:39:34.244Z,14.45
2023-10-06T04:40:37.114Z,14.45
2023-10-06T04:41:42.349Z,14.46
2023-10-06T04:42:46.517Z,14.45
2023-10-06T04:43:49.770Z,14.45
2023-10-06T04:44:56.185Z,14.45
2023-10-06T04:45:59.558Z,14.45
2023-10-06T04:47:01.718Z,14.46
2023-10-06T04:48:05.162Z,14.44
2023-10-06T04:49:08.832Z,14.44
2023-10-06T04:50:12.786Z,14.44
2023-10-06T04:51:16.219Z,14.44
2023-10-06T04:52:18.346Z,14.44
2023-10-06T04:53:22.147Z,14.44
2023-10-06T04:54:24.279Z,14.44
2023-10-06T04:55:26.514Z,14.44
2023-10-06T04:56:33.607Z,14.43
2023-10-06T04:57:35.738Z,14.43
2023-10-06T04:58:41.421Z,14.43
2023-10-06T04:59:43.803Z,14.44
2023-10-06T05:00:50.723Z,14.44
2023-10-06T05:01:54.290Z,14.43
2023-10-06T05:02:58.722Z,14.43
2023-10-06T05:04:01.309Z,14.42
2023-10-06T05:05:07.108Z,14.42
2023-10-06T05:06:10.833Z,14.44
2023-10-06T05:07:14.006Z,14.43
2023-10-06T05:08:16.258Z,14.41
2023-10-06T05:09:19.743Z,14.40
2023-10-06T05:10:22.760Z,14.39
2023-10-06T05:11:26.001Z,14.39
2023-10-06T05:12:28.211Z,14.40
2023-10-06T05:13:31.937Z,14.40
2023-10-06T05:14:35.761Z,14.40
2023-10-06T05:15:38.493Z,14.40
2023-10-06T05:16:42.284Z,14.40
2023-10-06T05:17:44.684Z,14.40
2023-10-06T05:18:48.764Z,14.39
2023-10-06T05:19:51.400Z,14.36
2023-10-06T05:20:54.658Z,14.33
2023-10-06T05:21:56.859Z,14.30
2023-10-06T05:23:03.317Z,14.27
2023-10-06T05:24:09.796Z,14.24
2023-10-06T05:25:14.643Z,14.21
2023-10-06T05:26:17.434Z,14.20
2023-10-06T05:27:22.557Z,14.19
2023-10-06T05:28:24.751Z,14.19
2023-10-06T05:29:29.427Z,14.19
2023-10-06T05:30:33.038Z,14.20
2023-10-06T05:31:36.214Z,14.20
2023-10-06T05:32:43.373Z,14.20
2023-10-06T05:33:47.104Z,14.21
2023-10-06T05:34:50.753Z,14.21
2023-10-06T05:35:54.080Z,14.22
2023-10-06T05:36:56.246Z,14.24
2023-10-06T05:37:59.792Z,14.25
2023-10-06T05:39:03.033Z,14.26
2023-10-06T05:40:07.596Z,14.27
2023-10-06T05:41:13.523Z,14.28
2023-10-06T05:42:17.250Z,14.30
2023-10-06T05:43:19.713Z,14.29
2023-10-06T05:44:23.377Z,14.29
2023-10-06T05:45:25.627Z,14.28
2023-10-06T05:46:31.718Z,14.27
2023-10-06T05:47:33.998Z,14.26
2023-10-06T05:48:37.647Z,14.25
2023-10-06T05:49:40.192Z,14.25
2023-10-06T05:50:44.840Z,14.26
2023-10-06T05:51:47.261Z,14.27
2023-10-06T05:52:53.254Z,14.28
2023-10-06T05:53:56.184Z,14.29
2023-10-06T05:55:01.598Z,14.31
2023-10-06T05:56:04.385Z,14.32
2023-10-06T05:57:07.560Z,14.35
2023-10-06T05:58:10.945Z,14.36
2023-10-06T05:59:19.981Z,14.37
2023-10-06T06:00:26.259Z,14.39
2023-10-06T06:01:33.428Z,14.40
2023-10-06T06:02:38.681Z,14.41
2023-10-06T06:03:47.120Z,14.41
2023-10-06T06:04:50.091Z,14.42
2023-10-06T06:05:54.712Z,14.44
2023-10-06T06:06:57.634Z,14.45
2023-10-06T06:08:01.715Z,14.46
2023-10-06T06:09:14.824Z,14.48
2023-10-06T06:10:18.730Z,14.49
2023-10-06T06:11:21.553Z,14.49
2023-10-06T06:12:25.033Z,14.51
2023-10-06T06:13:27.225Z,14.52
2023-10-06T06:14:30.517Z,14.52
2023-10-06T06:15:33.168Z,14.51
2023-10-06T06:16:37.889Z,14.51
2023-10-06T06:17:41.764Z,14.51
2023-10-06T06:18:46.821Z,14.52
2023-10-06T06:19:49.421Z,14.53
2023-10-06T06:20:53.325Z,14.55
2023-10-06T06:21:55.549Z,14.56
2023-10-06T06:23:00.758Z,14.59
2023-10-06T06:24:03.025Z,14.62
2023-10-06T06:25:07.583Z,14.63
2023-10-06T06:26:10.979Z,14.65
2023-10-06T06:27:14.761Z,14.66
2023-10-06T06:28:17.797Z,14.68
2023-10-06T06:29:21.982Z,14.70
2023-10-06T06:30:25.500Z,14.74
2023-10-06T06:31:28.823Z,14.75
2023-10-06T06:32:32.497Z,14.77
2023-10-06T06:33:36.818Z,14.76
2023-10-06T06:34:40.121Z,14.75
2023-10-06T06:35:43.570Z,14.75
2023-10-06T06:36:52.822Z,14.75
2023-10-06T06:38:00.973Z,14.77
2023-10-06T06:39:04.773Z,14.78
2023-10-06T06:40:11.360Z,14.79
2023-10-06T06:41:14.531Z,14.80
2023-10-06T06:42:16.754Z,14.81
2023-10-06T06:43:21.364Z,14.81
2023-10-06T06:44:23.640Z,14.84
2023-10-06T06:45:26.817Z,14.89
2023-10-06T06:46:31.377Z,14.90
2023-10-06T06:47:37.498Z,14.91
2023-10-06T06:48:39.955Z,14.94
2023-10-06T06:49:44.523Z,14.96
2023-10-06T06:50:49.691Z,14.98
2023-10-06T06:51:53.340Z,15.01
2023-10-06T06:52:57.618Z,15.03
2023-10-06T06:54:00.016Z,15.07
2023-10-06T06:55:02.172Z,15.09
2023-10-06T06:56:07.039Z,15.12
2023-10-06T06:57:14.112Z,15.13
2023-10-06T06:58:18.438Z,15.15
2023-10-06T06:59:29.068Z,15.18
2023-10-06T07:00:32.951Z,15.20
2023-10-06T07:01:35.616Z,15.24
2023-10-06T07:02:43.012Z,15.26
2023-10-06T07:03:45.460Z,15.29
2023-10-06T07:04:50.189Z,15.31
2023-10-06T07:05:52.556Z,15.33
2023-10-06T07:06:55.793Z,15.35
2023-10-06T07:07:58.086Z,15.37
2023-10-06T07:09:01.627Z,15.40
2023-10-06T07:10:07.724Z,15.42
2023-10-06T07:11:14.105Z,15.45
2023-10-06T07:12:16.339Z,15.48
2023-10-06T07:13:19.578Z,15.49
2023-10-06T07:14:21.884Z,15.52
2023-10-06T07:15:25.294Z,15.55
2023-10-06T07:16:27.929Z,15.57
2023-10-06T07:17:33.017Z,15.61
2023-10-06T07:18:39.009Z,15.64
2023-10-06T07:19:41.459Z,15.67
2023-10-06T07:20:45.544Z,15.71
2023-10-06T07:21:47.784Z,15.74
2023-10-06T07:22:53.904Z,15.77
2023-10-06T07:23:57.899Z,15.79
2023-10-06T07:25:03.722Z,15.80
2023-10-06T07:26:12.533Z,15.82
2023-10-06T07:27:15.712Z,15.83
2023-10-06T07:28:18.951Z,15.84
2023-10-06T07:29:22.165Z,15.85
2023-10-06T07:30:25.206Z,15.85
2023-10-06T07:31:28.632Z,15.84
2023-10-06T07:32:31.909Z,15.85
2023-10-06T07:33:35.114Z,15.87
2023-10-06T07:34:38.621Z,15.87
2023-10-06T07:35:46.698Z,15.89
2023-10-06T07:36:48.944Z,15.91
2023-10-06T07:37:53.649Z,15.94
2023-10-06T07:38:56.487Z,15.96
2023-10-06T07:40:03.915Z,15.99
2023-10-06T07:41:06.775Z,16.02
2023-10-06T07:42:09.993Z,16.04
2023-10-06T07:43:13.990Z,16.07
2023-10-06T07:44:17.561Z,16.10
2023-10-06T07:45:20.316Z,16.14
2023-10-06T07:46:24.132Z,16.19
2023-10-06T07:47:27.408Z,16.23
2023-10-06T07:48:31.206Z,16.29
2023-10-06T07:49:35.580Z,16.35
2023-10-06T07:50:39.566Z,16.41
2023-10-06T07:51:46.517Z,16.47
2023-10-06T07:52:49.043Z,16.52
2023-10-06T07:53:51.714Z,16.56
2023-10-06T07:54:54.905Z,16.60
2023-10-06T07:56:07.409Z,16.63
2023-10-06T07:57:13.987Z,16.65
2023-10-06T07:58:16.801Z,16.69
2023-10-06T07:59:20.216Z,16.71
2023-10-06T08:00:28.873Z,16.73
2023-10-06T08:01:33.883Z,16.74
2023-10-06T08:02:40.295Z,16.75
2023-10-06T08:03:44.543Z,16.76
2023-10-06T08:04:47.285Z,16.77
2023-10-06T08:05:51.834Z,16.79
2023-10-06T08:06:54.624Z,16.83
2023-10-06T08:07:59.794Z,16.86
2023-10-06T08:09:06.753Z,16.89
2023-10-06T08:10:14.871Z,16.92
2023-10-06T08:11:17.962Z,16.97
2023-10-06T08:12:24.435Z,17.02
2023-10-06T08:13:26.590Z,17.09
2023-10-06T08:14:29.771Z,17.14
2023-10-06T08:15:34.275Z,17.19
2023-10-06T08:16:38.723Z,17.22
2023-10-06T08:17:41.163Z,17.25
2023-10-06T08:18:44.366Z,17.27
2023-10-06T08:19:47.465Z,17.30
2023-10-06T08:20:52.077Z,17.32
2023-10-06T08:21:57.024Z,17.36
2023-10-06T08:23:00.292Z,17.39
2023-10-06T08:24:02.470Z,17.44
2023-10-06T08:25:07.253Z,17.47
2023-10-06T08:26:12.370Z,17.50
2023-10-06T08:27:22.276Z,17.52
2023-10-06T08:28:25.410Z,17.57
2023-10-06T08:29:30.902Z,17.60
2023-10-06T08:30:33.742Z,17.65
2023-10-06T08:31:36.869Z,17.73
2023-10-06T08:32:39.245Z,17.81
2023-10-06T08:33:42.671Z,17.85
2023-10-06T08:34:47.300Z,17.88
2023-10-06T08:35:59.055Z,17.90
2023-10-06T08:37:05.422Z,17.94
2023-10-06T08:38:10.540Z,17.98
2023-10-06T08:39:14.767Z,18.00
2023-10-06T08:40:20.630Z,18.02
2023-10-06T08:41:26.561Z,18.04
2023-10-06T08:42:31.597Z,18.07
2023-10-06T08:43:39.996Z,18.08
2023-10-06T08:44:44.128Z,18.10
2023-10-06T08:45:46.345Z,18.12
2023-10-06T08:46:51.064Z,18.14
2023-10-06T08:49:01.155Z,18.19
2023-10-06T08:50:03.878Z,18.22
2023-10-06T08:51:12.371Z,18.24
2023-10-06T08:52:14.881Z,18.26
2023-10-06T08:53:20.291Z,18.29
2023-10-06T08:54:23.127Z,18.31
2023-10-06T08:55:28.930Z,18.34
2023-10-06T08:56:31.664Z,18.37
2023-10-06T08:57:34.794Z,18.39
2023-10-06T08:58:37.369Z,18.42
2023-10-06T08:59:41.546Z,18.44
2023-10-06T09:00:44.920Z,18.47
2023-10-06T09:01:47.357Z,18.48
2023-10-06T09:02:52.390Z,18.49
2023-10-06T09:04:02.909Z,18.51
2023-10-06T09:05:11.955Z,18.52
2023-10-06T09:06:15.728Z,18.56
2023-10-06T09:07:22.399Z,18.58
2023-10-06T09:08:25.043Z,18.60
2023-10-06T09:09:28.439Z,18.62
2023-10-06T09:10:32.136Z,18.63
2023-10-06T09:11:41.950Z,18.65
2023-10-06T09:12:44.503Z,18.67
2023-10-06T09:13:48.012Z,18.69
2023-10-06T09:14:55.409Z,18.71
2023-10-06T09:16:00.851Z,18.73
2023-10-06T09:17:07.149Z,18.76
2023-10-06T09:18:20.793Z,18.79
2023-10-06T09:19:24.589Z,18.85
2023-10-06T09:20:32.147Z,18.89
2023-10-06T09:21:37.023Z,18.91
2023-10-06T09:22:50.332Z,18.94
2023-10-06T09:23:57.522Z,18.98
2023-10-06T09:25:01.196Z,19.02
2023-10-06T09:26:06.290Z,19.06
2023-10-06T09:27:22.135Z,19.09
2023-10-06T09:28:27.540Z,19.12
2023-10-06T09:29:34.144Z,19.14
2023-10-06T09:30:51.562Z,19.19
2023-10-06T09:31:54.026Z,19.24
2023-10-06T09:33:03.868Z,19.28
2023-10-06T09:34:09.495Z,19.34
2023-10-06T09:35:22.893Z,19.40
2023-10-06T09:36:42.469Z,19.45
2023-10-06T09:37:48.940Z,19.51
2023-10-06T09:38:51.179Z,19.56
2023-10-06T09:40:12.006Z,19.60
2023-10-06T09:41:14.844Z,19.63
2023-10-06T09:42:18.495Z,19.67
2023-10-06T09:43:22.618Z,19.71
2023-10-06T09:44:29.670Z,19.75
2023-10-06T09:45:32.188Z,19.80
2023-10-06T09:46:39.667Z,19.83
2023-10-06T09:47:49.876Z,19.84
2023-10-06T09:48:53.390Z,19.85
2023-10-06T09:49:56.183Z,19.87
2023-10-06T09:50:59.944Z,19.91
2023-10-06T09:52:02.814Z,19.96
2023-10-06T09:53:11.649Z,20.00
2023-10-06T09:54:15.348Z,20.03
2023-10-06T09:55:18.826Z,20.06
2023-10-06T09:56:23.446Z,20.08
2023-10-06T09:57:26.658Z,20.09
2023-10-06T09:58:30.786Z,20.10
2023-10-06T09:59:34.396Z,20.12
2023-10-06T10:00:41.142Z,20.15
2023-10-06T10:01:44.076Z,20.19
2023-10-06T10:02:48.713Z,20.24
2023-10-06T10:03:53.219Z,20.26
2023-10-06T10:05:00.770Z,20.27
2023-10-06T10:06:05.694Z,20.29
2023-10-06T10:07:10.806Z,20.30
2023-10-06T10:08:15.145Z,20.34
2023-10-06T10:09:18.815Z,20.36
2023-10-06T10:10:23.656Z,20.37
2023-10-06T10:11:31.261Z,20.37
2023-10-06T10:12:43.324Z,20.37
2023-10-06T10:14:04.460Z,20.39
2023-10-06T10:15:24.323Z,20.42
2023-10-06T10:16:49.428Z,20.43
2023-10-06T10:18:00.281Z,20.43
2023-10-06T10:19:08.584Z,20.45
2023-10-06T10:20:14.172Z,20.48
2023-10-06T10:21:18.303Z,20.51
2023-10-06T10:22:22.544Z,20.53
2023-10-06T10:23:28.299Z,20.56
2023-10-06T10:25:11.495Z,20.60
2023-10-06T10:25:55.553Z,20.62
2023-10-06T10:27:00.488Z,20.64
2023-10-06T10:28:14.337Z,20.67
2023-10-06T10:29:29.739Z,20.69
2023-10-06T10:30:50.888Z,20.72
2023-10-06T10:32:01.491Z,20.75
2023-10-06T10:33:10.651Z,20.77
2023-10-06T10:34:24.944Z,20.79
2023-10-06T10:35:28.768Z,20.82
2023-10-06T10:36:31.162Z,20.83
2023-10-06T10:37:33.389Z,20.86
2023-10-06T10:38:38.479Z,20.91
2023-10-06T10:39:41.928Z,20.94
2023-10-06T10:40:49.479Z,20.96
2023-10-06T10:41:59.734Z,20.96
2023-10-06T10:43:06.889Z,20.96
2023-10-06T10:44:25.448Z,20.97
2023-10-06T10:45:31.732Z,20.99
2023-10-06T10:46:41.743Z,21.00
2023-10-06T10:47:45.011Z,20.99
2023-10-06T10:48:49.023Z,21.00
2023-10-06T10:49:52.753Z,21.02
2023-10-06T10:51:02.763Z,21.03
2023-10-06T10:52:08.759Z,21.07
2023-10-06T10:53:12.333Z,21.08
2023-10-06T10:54:22.060Z,21.06
2023-10-06T10:55:25.630Z,21.06
2023-10-06T10:56:36.359Z,21.05
2023-10-06T10:57:45.869Z,21.06
2023-10-06T10:58:58.660Z,21.07
2023-10-06T11:00:15.267Z,21.09
2023-10-06T11:01:31.089Z,21.12
2023-10-06T11:02:36.797Z,21.15
2023-10-06T11:03:40.112Z,21.17
2023-10-06T11:04:45.018Z,21.18
2023-10-06T11:05:49.359Z,21.21
2023-10-06T11:06:52.309Z,21.24
2023-10-06T11:09:27.765Z,21.27
2023-10-06T11:10:31.016Z,21.29
2023-10-06T11:11:35.261Z,21.30
2023-10-06T11:12:38.398Z,21.33
2023-10-06T11:13:54.094Z,21.35
2023-10-06T11:15:04.651Z,21.39
2023-10-06T11:16:07.869Z,21.41
2023-10-06T11:17:13.197Z,21.43
2023-10-06T11:18:19.255Z,21.45
2023-10-06T11:19:21.812Z,21.48
2023-10-06T11:20:26.986Z,21.50
2023-10-06T11:21:29.238Z,21.51
2023-10-06T11:22:32.399Z,21.51
2023-10-06T11:23:42.455Z,21.52
2023-10-06T11:24:47.373Z,21.53
2023-10-06T11:25:51.426Z,21.54
2023-10-06T11:26:54.017Z,21.56
2023-10-06T11:28:03.633Z,21.59
2023-10-06T11:29:06.255Z,21.64
2023-10-06T11:30:12.784Z,21.66
2023-10-06T11:31:15.147Z,21.67
2023-10-06T11:32:18.610Z,21.67
2023-10-06T11:33:22.199Z,21.68
2023-10-06T11:34:26.533Z,21.69
2023-10-06T11:35:28.856Z,21.70
2023-10-06T11:36:32.656Z,21.70
2023-10-06T11:37:34.946Z,21.72
2023-10-06T11:38:38.349Z,21.73
2023-10-06T11:39:40.830Z,21.74
2023-10-06T11:40:45.839Z,21.74
2023-10-06T11:41:48.423Z,21.75
2023-10-06T11:42:51.622Z,21.76
2023-10-06T11:43:55.022Z,21.78
2023-10-06T11:44:58.422Z,21.79
2023-10-06T11:46:03.697Z,21.82
2023-10-06T11:47:06.476Z,21.83
2023-10-06T11:48:24.715Z,21.84
2023-10-06T11:49:27.868Z,21.86
2023-10-06T11:50:33.594Z,21.88
2023-10-06T11:51:40.328Z,21.89
2023-10-06T11:52:44.599Z,21.90
2023-10-06T11:53:47.872Z,21.90
2023-10-06T11:54:50.908Z,21.89
2023-10-06T11:56:06.650Z,21.89
2023-10-06T11:57:09.474Z,21.91
2023-10-06T11:58:12.731Z,21.95
2023-10-06T11:59:20.221Z,21.97
2023-10-06T12:00:41.293Z,21.99
2023-10-06T12:01:43.532Z,22.00
2023-10-06T12:02:46.833Z,22.00
2023-10-06T12:03:50.237Z,22.03
2023-10-06T12:04:52.358Z,22.04
2023-10-06T12:05:57.528Z,22.04
2023-10-06T12:06:59.972Z,22.03
2023-10-06T12:08:05.985Z,22.04
2023-10-06T12:09:09.473Z,22.04
2023-10-06T12:10:13.042Z,22.05
2023-10-06T12:11:16.623Z,22.08
2023-10-06T12:12:19.982Z,22.10
2023-10-06T12:13:22.153Z,22.11
2023-10-06T12:14:26.754Z,22.12
2023-10-06T12:15:31.027Z,22.12
2023-10-06T12:16:36.455Z,22.14
2023-10-06T12:17:39.932Z,22.17
2023-10-06T12:18:44.865Z,22.18
2023-10-06T12:19:47.096Z,22.19
2023-10-06T12:20:50.363Z,22.19
2023-10-06T12:21:52.621Z,22.20
2023-10-06T12:22:55.401Z,22.23
2023-10-06T12:23:59.613Z,22.24
2023-10-06T12:25:01.984Z,22.25
2023-10-06T12:26:06.724Z,22.25
2023-10-06T12:27:10.824Z,22.27
2023-10-06T12:28:17.715Z,22.30
2023-10-06T12:29:20.204Z,22.30
2023-10-06T12:30:23.392Z,22.31
2023-10-06T12:31:25.583Z,22.30
2023-10-06T12:32:29.025Z,22.31
2023-10-06T12:33:31.416Z,22.33
2023-10-06T12:34:34.594Z,22.36
2023-10-06T12:35:38.051Z,22.41
2023-10-06T12:36:41.281Z,22.44
2023-10-06T12:37:43.478Z,22.46
2023-10-06T12:38:46.686Z,22.48
2023-10-06T12:39:49.921Z,22.49
2023-10-06T12:40:54.184Z,22.49
2023-10-06T12:41:56.646Z,22.51
2023-10-06T12:43:01.217Z,22.53
2023-10-06T12:44:08.963Z,22.52
2023-10-06T12:45:14.766Z,22.51
2023-10-06T12:46:17.268Z,22.51
2023-10-06T12:47:20.481Z,22.51
2023-10-06T12:48:22.713Z,22.50
2023-10-06T12:49:30.221Z,22.51
2023-10-06T12:50:41.735Z,22.51
2023-10-06T12:51:45.039Z,22.51
2023-10-06T12:52:50.922Z,22.51
2023-10-06T12:53:54.114Z,22.50
2023-10-06T12:54:56.342Z,22.48
2023-10-06T12:55:59.467Z,22.48
2023-10-06T12:57:01.716Z,22.47
2023-10-06T12:58:07.668Z,22.49
2023-10-06T12:59:09.866Z,22.51
2023-10-06T13:00:12.919Z,22.55
2023-10-06T13:01:16.101Z,22.56
2023-10-06T13:02:26.215Z,22.55
2023-10-06T13:03:30.635Z,22.56
2023-10-06T13:04:33.331Z,22.57
2023-10-06T13:05:36.690Z,22.57
2023-10-06T13:06:38.909Z,22.57
2023-10-06T13:07:44.096Z,22.59
2023-10-06T13:08:46.600Z,22.60
2023-10-06T13:09:51.075Z,22.60
2023-10-06T13:10:55.126Z,22.61
2023-10-06T13:11:59.653Z,22.61
2023-10-06T13:13:07.566Z,22.61
2023-10-06T13:14:10.903Z,22.61
2023-10-06T13:15:14.318Z,22.61
2023-10-06T13:16:18.899Z,22.63
2023-10-06T13:17:21.715Z,22.63
2023-10-06T13:18:24.977Z,22.61
2023-10-06T13:19:27.149Z,22.58
2023-10-06T13:20:30.351Z,22.57
2023-10-06T13:21:32.590Z,22.58
2023-10-06T13:22:37.907Z,22.59
2023-10-06T13:23:40.700Z,22.60
2023-10-06T13:24:43.856Z,22.65
2023-10-06T13:25:47.320Z,22.69
2023-10-06T13:26:51.342Z,22.70
2023-10-06T13:27:53.500Z,22.72
2023-10-06T13:28:58.034Z,22.75
2023-10-06T13:30:01.730Z,22.80
2023-10-06T13:31:08.651Z,22.88
2023-10-06T13:32:12.434Z,22.96
2023-10-06T13:33:16.785Z,23.04
2023-10-06T13:34:19.166Z,23.13
2023-10-06T13:35:22.805Z,23.21
2023-10-06T13:36:25.001Z,23.27
2023-10-06T13:37:29.466Z,23.32
2023-10-06T13:38:34.473Z,23.34
2023-10-06T13:39:37.732Z,23.37
2023-10-06T13:40:39.886Z,23.40
2023-10-06T13:41:43.915Z,23.44
2023-10-06T13:42:47.430Z,23.48
2023-10-06T13:43:50.789Z,23.51
2023-10-06T13:44:54.328Z,23.53
2023-10-06T13:45:59.199Z,23.55
2023-10-06T13:47:02.298Z,23.60
2023-10-06T13:48:06.396Z,23.64
2023-10-06T13:49:08.611Z,23.65
2023-10-06T13:50:13.663Z,23.65
2023-10-06T13:51:18.146Z,23.66
2023-10-06T13:52:20.407Z,23.70
2023-10-06T13:53:23.254Z,23.72
2023-10-06T13:54:26.512Z,23.74
2023-10-06T13:55:30.875Z,23.73
2023-10-06T13:56:36.492Z,23.72
2023-10-06T13:57:40.042Z,23.72
2023-10-06T13:58:43.173Z,23.72
2023-10-06T13:59:47.939Z,23.72
2023-10-06T14:00:57.158Z,23.73